Time;durP1;ratioP1;P1;durP2;ratioP2;P2;SDS_P1;SDS_P2;PMS_P1;PMS_P2;Temp;Humidity;BMP_temperature;BMP_pressure;BME280_temperature;BME280_humidity;BME280_pressure;Samples;Min_cycle;Max_cycle;Signal;HPM_P1;HPM_P2
2022/03/13 00:00:17;;;;;;;69.00;25.47;;;;;;;-2.76;nan;101870.69;5002349;28;20224;-68
2022/03/13 00:02:45;;;;;;;69.55;25.13;;;;;;;-2.74;nan;101882.53;5000090;28;20030;-68
2022/03/13 00:05:16;;;;;;;71.77;27.60;;;;;;;-2.80;nan;101883.78;4999475;28;20492;-67
2022/03/13 00:07:47;;;;;;;85.35;29.02;;;;;;;-2.84;nan;101876.34;5002456;28;20074;-69
2022/03/13 00:10:16;;;;;;;76.32;29.52;;;;;;;-2.99;nan;101855.00;4993814;28;20065;-67
2022/03/13 00:12:41;;;;;;;81.65;30.23;;;;;;;-2.83;nan;101889.13;5014365;28;20070;-68
2022/03/13 00:15:10;;;;;;;66.47;25.17;;;;;;;-2.89;nan;101874.06;4994643;28;20609;-68
2022/03/13 00:17:36;;;;;;;64.47;24.98;;;;;;;-3.10;nan;101849.69;5012171;28;20034;-68
2022/03/13 00:20:05;;;;;;;74.90;29.17;;;;;;;-3.35;nan;101829.84;5006077;28;20088;-68
2022/03/13 00:22:33;;;;;;;78.90;30.40;;;;;;;-3.09;nan;101877.09;5005772;28;20037;-68
2022/03/13 00:25:06;;;;;;;82.15;32.22;;;;;;;-3.14;nan;101876.59;5008337;28;20041;-68
2022/03/13 00:27:34;;;;;;;95.05;33.67;;;;;;;-3.16;nan;101878.44;5006899;28;20037;-69
2022/03/13 00:30:00;;;;;;;99.32;36.70;;;;;;;-3.18;nan;101875.13;5033605;28;20123;-67
2022/03/13 00:32:26;;;;;;;102.63;36.22;;;;;;;-3.25;nan;101879.88;5101397;28;20024;-67
2022/03/13 00:34:52;;;;;;;114.63;41.30;;;;;;;-3.42;nan;101860.34;5081352;28;20392;-69
2022/03/13 00:37:17;;;;;;;116.22;42.75;;;;;;;-3.37;nan;101875.50;5107614;28;20021;-68
2022/03/13 00:39:44;;;;;;;120.20;45.72;;;;;;;-3.52;nan;101856.66;5106268;28;20123;-68
2022/03/13 00:42:12;;;;;;;128.63;44.85;;;;;;;-3.48;nan;101871.84;5106498;28;20035;-67
2022/03/13 00:44:38;;;;;;;124.95;45.72;;;;;;;-3.54;nan;101871.41;5098175;28;20042;-69
2022/03/13 00:47:05;;;;;;;131.15;46.33;;;;;;;-3.85;nan;101819.28;5108715;28;20036;-68
2022/03/13 00:49:31;;;;;;;138.63;45.78;;;;;;;-3.64;nan;101856.53;5086546;28;20043;-68
2022/03/13 00:51:59;;;;;;;138.70;49.53;;;;;;;-3.78;nan;101830.84;5103294;28;20126;-67
2022/03/13 00:54:24;;;;;;;175.35;60.25;;;;;;;-3.88;nan;101835.75;5088555;28;20401;-69
2022/03/13 00:56:50;;;;;;;164.30;62.22;;;;;;;-3.82;nan;101851.72;5096550;28;20028;-68
2022/03/13 00:59:15;;;;;;;177.57;63.28;;;;;;;-3.92;nan;101836.84;5101358;28;20390;-69
2022/03/13 01:01:41;;;;;;;140.38;49.42;;;;;;;-3.93;nan;101830.03;5106526;28;20036;-69
2022/03/13 01:04:06;;;;;;;144.52;48.67;;;;;;;-3.97;nan;101823.44;5095406;28;20085;-69
2022/03/13 01:06:32;;;;;;;142.88;54.28;;;;;;;-4.03;nan;101818.66;5090863;28;20066;-67
2022/03/13 01:08:57;;;;;;;168.27;58.30;;;;;;;-3.89;nan;101843.53;5095635;28;20048;-67
2022/03/13 01:11:23;;;;;;;148.40;51.55;;;;;;;-3.94;nan;101830.97;5101158;28;20039;-67
2022/03/13 01:13:49;;;;;;;125.28;47.03;;;;;;;-3.90;nan;101840.16;5092033;28;20138;-67
2022/03/13 01:16:40;;;;;;;126.70;45.33;;;;;;;-3.99;nan;101825.28;5086644;28;20031;-67
2022/03/13 01:19:06;;;;;;;130.80;45.33;;;;;;;-3.93;nan;101830.03;5104605;28;20100;-67
2022/03/13 01:21:37;;;;;;;134.27;45.92;;;;;;;-3.93;nan;101829.22;5078952;28;20363;-68
2022/03/13 01:24:05;;;;;;;129.95;45.42;;;;;;;-3.92;nan;101836.03;5102048;28;20036;-68
2022/03/13 01:26:36;;;;;;;144.05;49.08;;;;;;;-3.91;nan;101830.75;5091815;28;20123;-68
2022/03/13 01:29:14;;;;;;;143.00;48.03;;;;;;;-3.96;nan;101816.53;5091703;28;20470;-68
2022/03/13 01:31:43;;;;;;;139.55;45.67;;;;;;;-4.04;nan;101808.50;5106506;28;20023;-67
2022/03/13 01:34:12;;;;;;;;;;;;;;;-3.96;nan;101821.69;5102760;28;20127;-68
2022/03/13 01:36:38;;;;;;;120.45;42.78;;;;;;;-4.05;nan;101817.94;5104031;28;20417;-69
2022/03/13 01:39:06;;;;;;;125.25;45.97;;;;;;;-4.12;nan;101816.66;5104751;28;20367;-68
2022/03/13 01:41:34;;;;;;;123.65;44.85;;;;;;;-4.24;nan;101813.09;5100357;28;20434;-67
2022/03/13 01:44:00;;;;;;;126.65;43.20;;;;;;;-4.35;nan;101815.50;5105866;28;20159;-65
2022/03/13 01:46:26;;;;;;;118.05;41.90;;;;;;;-4.41;nan;101823.56;5104406;28;20547;-66
2022/03/13 01:48:57;;;;;;;108.53;39.25;;;;;;;-4.64;nan;101797.50;5103080;28;20035;-68
2022/03/13 01:51:25;;;;;;;97.53;37.33;;;;;;;-4.56;nan;101815.88;5089812;28;20035;-67
2022/03/13 01:53:56;;;;;;;115.30;40.72;;;;;;;-4.81;nan;101789.97;5093528;28;20140;-67
2022/03/13 01:56:22;;;;;;;110.43;40.70;;;;;;;-4.79;nan;101809.53;5084185;28;20042;-67
2022/03/13 01:58:50;;;;;;;113.03;40.42;;;;;;;-4.74;nan;101815.22;5108326;28;20020;-67
2022/03/13 02:01:18;;;;;;;77.95;29.88;;;;;;;-4.83;nan;101804.66;5096249;28;20082;-67
2022/03/13 02:03:44;;;;;;;106.97;38.50;;;;;;;-4.96;nan;101794.25;5108973;28;20054;-69
2022/03/13 02:06:10;;;;;;;105.93;38.88;;;;;;;-4.89;nan;101818.66;5117372;28;20100;-68
2022/03/13 02:08:38;;;;;;;108.82;39.47;;;;;;;-4.97;nan;101810.59;5113804;28;20060;-67
2022/03/13 02:11:05;;;;;;;80.03;28.27;;;;;;;-5.18;nan;101787.78;5114734;28;20050;-68
2022/03/13 02:13:32;;;;;;;97.82;36.70;;;;;;;-5.24;nan;101793.31;5099484;28;20036;-68
2022/03/13 02:15:58;;;;;;;90.78;33.65;;;;;;;-5.29;nan;101805.56;5106779;28;20035;-67
2022/03/13 02:18:23;;;;;;;94.75;34.47;;;;;;;-5.32;nan;101792.06;5088461;28;20038;-67
2022/03/13 02:20:49;;;;;;;83.72;31.92;;;;;;;-5.31;nan;101799.69;5097411;28;20039;-69
2022/03/13 02:23:26;;;;;;;85.03;32.08;;;;;;;-5.38;nan;101793.25;5105104;28;20035;-69
2022/03/13 02:25:53;;;;;;;78.30;30.00;;;;;;;-5.31;nan;101804.00;5104064;28;20031;-67
2022/03/13 02:28:20;;;;;;;82.88;31.65;;;;;;;-5.35;nan;101809.31;5090792;28;20044;-67
2022/03/13 02:30:48;;;;;;;85.07;29.70;;;;;;;-5.52;nan;101778.63;5105076;28;20125;-67
2022/03/13 02:33:18;;;;;;;72.40;28.42;;;;;;;-5.41;nan;101811.38;5089947;28;20520;-68
2022/03/13 02:35:53;;;;;;;83.68;28.35;;;;;;;-5.46;nan;101803.97;5096998;28;20526;-69
2022/03/13 02:38:18;;;;;;;67.65;25.88;;;;;;;-5.43;nan;101810.66;5081536;28;20126;-70
2022/03/13 02:40:44;;;;;;;76.97;27.67;;;;;;;-5.48;nan;101803.22;5084438;28;20119;-70
2022/03/13 02:43:09;;;;;;;67.25;25.38;;;;;;;-5.51;nan;101794.84;5097398;28;20564;-67
2022/03/13 02:45:37;;;;;;;77.03;28.83;;;;;;;-5.41;nan;101801.97;5097115;28;20067;-69
2022/03/13 02:48:06;;;;;;;73.43;27.00;;;;;;;-5.42;nan;101791.78;5102360;28;20062;-67
2022/03/13 02:50:32;;;;;;;72.63;27.05;;;;;;;-5.48;nan;101797.25;5100709;28;20034;-68
2022/03/13 02:52:58;;;;;;;71.15;26.92;;;;;;;-5.37;nan;101797.47;5102934;28;20126;-68
2022/03/13 02:55:24;;;;;;;69.38;27.30;;;;;;;-5.44;nan;101786.72;5102074;28;20123;-68
2022/03/13 02:57:50;;;;;;;76.45;27.63;;;;;;;-5.41;nan;101784.00;5093856;28;20034;-67
2022/03/13 03:00:16;;;;;;;74.05;28.25;;;;;;;-5.41;nan;101791.69;5100058;28;20146;-68
2022/03/13 03:02:42;;;;;;;69.03;26.95;;;;;;;-5.46;nan;101773.16;5102312;28;20054;-67
2022/03/13 03:05:08;;;;;;;72.75;26.60;;;;;;;-5.52;nan;101759.84;5104201;28;20040;-68
2022/03/13 03:07:35;;;;;;;63.20;24.92;;;;;;;-5.45;nan;101777.38;5101851;28;20089;-68
2022/03/13 03:10:01;;;;;;;66.28;24.05;;;;;;;-5.52;nan;101776.06;5094159;28;20082;-67
2022/03/13 03:12:27;;;;;;;53.65;22.83;;;;;;;-5.50;nan;101792.22;5084446;28;20031;-69
2022/03/13 03:14:53;;;;;;;61.30;22.75;;;;;;;-5.57;nan;101785.75;5105724;28;20038;-68
2022/03/13 03:17:18;;;;;;;56.95;22.25;;;;;;;-5.64;nan;101779.31;5102069;28;20381;-68
2022/03/13 03:19:44;;;;;;;55.55;21.58;;;;;;;-5.64;nan;101780.16;5101560;28;20441;-69
2022/03/13 03:22:10;;;;;;;53.47;20.67;;;;;;;-5.70;nan;101772.78;5094635;28;20440;-67
2022/03/13 03:24:36;;;;;;;53.28;20.58;;;;;;;-5.71;nan;101778.84;5103651;28;20059;-68
2022/03/13 03:27:02;;;;;;;56.30;20.08;;;;;;;-5.69;nan;101781.31;5078589;28;20040;-67
2022/03/13 03:29:28;;;;;;;56.85;19.73;;;;;;;-5.69;nan;101779.56;5095588;28;20035;-69
2022/03/13 03:31:55;;;;;;;55.95;20.48;;;;;;;-5.65;nan;101777.66;5102159;28;20039;-69
2022/03/13 03:34:23;;;;;;;55.33;21.02;;;;;;;-5.68;nan;101770.97;5107580;28;20110;-66
2022/03/13 03:36:59;;;;;;;54.92;19.98;;;;;;;-5.82;nan;101750.38;5101999;28;20042;-68
2022/03/13 03:39:26;;;;;;;45.15;19.23;;;;;;;-5.64;nan;101777.56;5098431;28;20470;-67
2022/03/13 03:41:53;;;;;;;49.75;20.42;;;;;;;-5.60;nan;101773.13;5089259;28;20067;-68
2022/03/13 03:44:20;;;;;;;53.25;19.55;;;;;;;-5.58;nan;101776.41;5108139;28;20051;-68
2022/03/13 03:46:46;;;;;;;48.05;18.75;;;;;;;-5.58;nan;101769.53;5107212;28;20440;-67
2022/03/13 03:49:12;;;;;;;48.90;18.67;;;;;;;-5.61;nan;101764.56;5091370;28;20069;-68
2022/03/13 03:51:38;;;;;;;50.55;19.02;;;;;;;-5.56;nan;101772.84;5109454;28;20027;-68
2022/03/13 03:54:05;;;;;;;45.75;17.08;;;;;;;-5.53;nan;101777.00;5092224;28;20105;-67
2022/03/13 03:56:31;;;;;;;48.95;19.38;;;;;;;-5.51;nan;101770.00;5098465;28;20039;-67
2022/03/13 03:58:56;;;;;;;45.15;18.58;;;;;;;-5.60;nan;101755.16;5083861;28;20513;-68
2022/03/13 04:01:22;;;;;;;43.88;17.35;;;;;;;-5.58;nan;101759.28;5102163;28;20484;-69
2022/03/13 04:03:48;;;;;;;48.00;18.27;;;;;;;-5.47;nan;101776.63;5101456;28;20089;-69
2022/03/13 04:06:13;;;;;;;50.75;17.90;;;;;;;-5.52;nan;101765.81;5101559;28;20443;-69
2022/03/13 04:08:39;;;;;;;43.45;16.40;;;;;;;-5.47;nan;101761.22;5086108;28;20047;-67
2022/03/13 04:11:08;;;;;;;45.92;16.52;;;;;;;-5.48;nan;101762.16;5109825;28;20034;-69
2022/03/13 04:13:35;;;;;;;;;;;;;;;-5.43;nan;101764.47;5102190;28;20036;-67
2022/03/13 04:16:01;;;;;;;42.70;16.25;;;;;;;-5.44;nan;101755.09;5100473;28;19965;-67
2022/03/13 04:18:26;;;;;;;40.58;16.35;;;;;;;-5.43;nan;101755.00;5089269;28;20032;-67
2022/03/13 04:20:51;;;;;;;47.72;17.80;;;;;;;-5.47;nan;101750.13;5102723;28;20069;-68
2022/03/13 04:23:17;;;;;;;39.13;16.25;;;;;;;-5.35;nan;101764.84;5088380;28;20545;-67
2022/03/13 04:25:44;;;;;;;43.35;17.02;;;;;;;-5.78;nan;101698.81;5101238;28;20036;-69
2022/03/13 04:28:10;;;;;;;41.55;16.15;;;;;;;-5.49;nan;101744.25;5109063;28;20032;-67
2022/03/13 04:30:39;;;;;;;41.83;16.63;;;;;;;-5.39;nan;101759.06;5074263;28;20036;-67
2022/03/13 04:33:05;;;;;;;44.20;16.92;;;;;;;-5.43;nan;101755.00;5105427;28;20105;-67
2022/03/13 04:35:30;;;;;;;37.05;15.98;;;;;;;-5.29;nan;101779.91;5111314;28;20178;-68
2022/03/13 04:37:55;;;;;;;42.78;17.10;;;;;;;-5.23;nan;101788.97;5102606;28;20024;-67
2022/03/13 04:40:21;;;;;;;46.08;17.08;;;;;;;-5.21;nan;101777.72;5100684;28;20038;-68
2022/03/13 04:42:46;;;;;;;46.88;17.88;;;;;;;-5.21;nan;101766.63;5107912;28;20473;-68
2022/03/13 04:45:13;;;;;;;44.20;17.25;;;;;;;-5.06;nan;101786.25;5110696;28;20047;-67
2022/03/13 04:47:38;;;;;;;41.92;18.23;;;;;;;-5.07;nan;101783.81;5090374;28;20111;-69
2022/03/13 04:50:04;;;;;;;40.83;17.27;;;;;;;-4.99;nan;101782.41;5094052;28;20111;-71
2022/03/13 04:52:29;;;;;;;46.13;19.02;;;;;;;-5.01;nan;101771.41;5098178;28;20626;-69
2022/03/13 04:54:55;;;;;;;51.55;18.65;;;;;;;-5.04;nan;101761.31;5108612;28;20093;-67
2022/03/13 04:57:21;;;;;;;44.50;18.95;;;;;;;-4.97;nan;101772.06;5104115;28;20024;-67
2022/03/13 04:59:46;;;;;;;48.67;19.08;;;;;;;-5.01;nan;101760.31;5104991;28;20428;-68
2022/03/13 05:02:12;;;;;;;43.95;19.13;;;;;;;-4.92;nan;101776.00;5105442;28;20522;-67
2022/03/13 05:04:38;;;;;;;49.70;20.05;;;;;;;-4.90;nan;101764.84;5093181;28;20109;-68
2022/03/13 05:07:06;;;;;;;49.80;20.60;;;;;;;-4.84;nan;101775.53;5088031;28;20039;-68
2022/03/13 05:09:32;;;;;;;50.90;19.95;;;;;;;-4.81;nan;101777.97;5103547;28;20122;-68
2022/03/13 05:12:09;;;;;;;46.70;20.85;;;;;;;-4.85;nan;101773.91;5078944;28;20089;-69
2022/03/13 05:14:35;;;;;;;48.08;19.80;;;;;;;-4.73;nan;101780.88;5080840;28;20051;-67
2022/03/13 05:17:00;;;;;;;52.38;20.08;;;;;;;-5.10;nan;101717.19;5095734;28;20035;-68
2022/03/13 05:19:25;;;;;;;45.20;20.52;;;;;;;-4.67;nan;101777.13;5098659;28;20478;-68
2022/03/13 05:21:51;;;;;;;47.55;21.08;;;;;;;-4.67;nan;101766.84;5092154;28;20028;-67
2022/03/13 05:24:17;;;;;;;44.63;20.35;;;;;;;-4.64;nan;101771.81;5105792;28;20057;-68
2022/03/13 05:26:44;;;;;;;45.75;20.13;;;;;;;-4.49;nan;101780.34;5101298;28;20050;-68
2022/03/13 05:29:09;;;;;;;51.22;20.70;;;;;;;-4.55;nan;101773.84;5104814;28;20127;-68
2022/03/13 05:31:35;;;;;;;45.08;20.63;;;;;;;-4.44;nan;101780.06;5098999;28;20569;-67
2022/03/13 05:34:00;;;;;;;50.88;19.83;;;;;;;-4.42;nan;101791.91;5081795;28;20123;-69
2022/03/13 05:36:25;;;;;;;43.08;19.63;;;;;;;-4.36;nan;101777.84;5073921;28;20042;-67
2022/03/13 05:38:51;;;;;;;48.17;20.33;;;;;;;-4.34;nan;101787.09;5095404;28;20415;-68
2022/03/13 05:41:19;;;;;;;50.25;20.00;;;;;;;-4.46;nan;101771.59;5109593;28;20056;-67
2022/03/13 05:43:44;;;;;;;53.53;21.02;;;;;;;-4.34;nan;101789.69;5091003;28;20057;-67
2022/03/13 05:46:10;;;;;;;50.47;20.83;;;;;;;-4.33;nan;101786.19;5107111;28;20489;-68
2022/03/13 05:48:36;;;;;;;55.22;21.50;;;;;;;-4.22;nan;101789.84;5080706;28;20139;-67
2022/03/13 05:51:01;;;;;;;52.28;21.80;;;;;;;-4.21;nan;101789.78;5097391;28;20486;-68
2022/03/13 05:53:27;;;;;;;46.95;20.30;;;;;;;-4.44;nan;101755.16;5097876;28;20128;-66
2022/03/13 05:55:53;;;;;;;54.55;21.98;;;;;;;-4.21;nan;101797.50;5084447;28;20397;-67
2022/03/13 05:58:19;;;;;;;52.50;21.98;;;;;;;-4.22;nan;101795.00;5104748;28;20027;-67
2022/03/13 06:00:55;;;;;;;44.83;20.80;;;;;;;-4.22;nan;101805.28;5101892;28;20067;-67
2022/03/13 06:03:21;;;;;;;51.00;21.38;;;;;;;-4.24;nan;101789.94;5105280;28;20181;-67
2022/03/13 06:05:48;;;;;;;45.70;20.77;;;;;;;-4.19;nan;101794.81;5105640;28;20035;-70
2022/03/13 06:08:14;;;;;;;51.20;22.23;;;;;;;-4.21;nan;101784.63;5080859;28;20481;-67
2022/03/13 06:10:39;;;;;;;51.47;21.40;;;;;;;-4.05;nan;101799.91;5107318;28;20039;-68
2022/03/13 06:13:05;;;;;;;52.03;22.60;;;;;;;-4.07;nan;101791.47;5106386;28;20067;-67
2022/03/13 06:15:31;;;;;;;53.15;22.02;;;;;;;-3.94;nan;101794.94;5083892;28;20044;-67
2022/03/13 06:17:58;;;;;;;60.85;23.58;;;;;;;-3.91;nan;101793.91;5107442;28;20050;-67
2022/03/13 06:20:24;;;;;;;64.95;27.48;;;;;;;-3.86;nan;101784.97;5084347;28;20032;-69
2022/03/13 06:22:49;;;;;;;69.13;28.60;;;;;;;-3.55;nan;101802.81;5086681;28;20043;-70
2022/03/13 06:25:16;;;;;;;67.93;27.67;;;;;;;-3.73;nan;101740.47;5098334;28;20032;-69
2022/03/13 06:27:43;;;;;;;72.18;28.15;;;;;;;-3.12;nan;101800.84;5102281;28;20478;-70
2022/03/13 06:30:16;;;;;;;54.75;22.48;;;;;;;-2.97;nan;101800.75;5099748;28;20367;-67
2022/03/13 06:32:50;;;;;;;45.05;19.73;;;;;;;-2.90;nan;101807.16;5099173;28;20035;-67
2022/03/13 06:35:18;;;;;;;42.75;19.75;;;;;;;-2.93;nan;101790.13;5103691;28;20028;-67
2022/03/13 06:37:44;;;;;;;43.42;18.33;;;;;;;-2.95;nan;101799.72;5102932;28;20101;-68
2022/03/13 06:40:10;;;;;;;43.90;18.95;;;;;;;-3.10;nan;101782.72;5084865;28;20061;-67
2022/03/13 06:42:38;;;;;;;42.33;18.85;;;;;;;-2.95;nan;101799.72;5099392;28;20039;-67
2022/03/13 06:45:04;;;;;;;46.75;20.27;;;;;;;-2.92;nan;101806.41;5070167;28;20040;-66
2022/03/13 06:47:30;;;;;;;41.95;19.20;;;;;;;-2.99;nan;101798.28;5100679;28;20032;-68
2022/03/13 06:49:55;;;;;;;41.72;18.50;;;;;;;-2.85;nan;101826.56;5103069;28;20034;-68
2022/03/13 06:52:21;;;;;;;40.80;18.50;;;;;;;-2.88;nan;101821.56;5100364;28;20063;-69
2022/03/13 06:54:47;;;;;;;44.30;18.95;;;;;;;-2.84;nan;101825.59;5085391;28;20129;-67
2022/03/13 06:57:15;;;;;;;43.47;19.52;;;;;;;-2.83;nan;101821.28;5095523;28;20116;-67
2022/03/13 06:59:44;;;;;;;40.35;18.92;;;;;;;-2.83;nan;101824.66;5077328;28;20105;-67
2022/03/13 07:02:13;;;;;;;42.50;18.65;;;;;;;-2.90;nan;101812.31;5103769;28;20076;-67
2022/03/13 07:04:39;;;;;;;39.28;18.10;;;;;;;-2.72;nan;101839.44;5075610;28;20174;-67
2022/03/13 07:07:05;;;;;;;40.85;17.67;;;;;;;-2.67;nan;101844.28;5096753;28;20039;-67
2022/03/13 07:09:32;;;;;;;37.67;17.17;;;;;;;-2.65;nan;101837.28;5074181;28;20981;-66
2022/03/13 07:11:58;;;;;;;44.08;18.10;;;;;;;-2.72;nan;101813.66;5102750;28;20035;-67
2022/03/13 07:14:24;;;;;;;39.58;17.42;;;;;;;-2.56;nan;101834.09;5100046;28;20031;-66
2022/03/13 07:16:49;;;;;;;38.88;17.02;;;;;;;-2.63;nan;101817.38;5106703;28;20046;-68
2022/03/13 07:19:15;;;;;;;42.08;17.83;;;;;;;-2.48;nan;101831.81;5106593;28;20042;-67
2022/03/13 07:21:40;;;;;;;42.17;16.80;;;;;;;-2.46;nan;101829.94;5105816;28;20119;-68
2022/03/13 07:24:06;;;;;;;42.72;17.70;;;;;;;-2.25;nan;101847.44;5105409;28;20040;-67
2022/03/13 07:26:32;;;;;;;38.20;17.20;;;;;;;-2.21;nan;101851.47;5106163;28;20397;-67
2022/03/13 07:28:57;;;;;;;38.65;17.63;;;;;;;-2.58;nan;101781.78;5107439;28;20043;-67
2022/03/13 07:31:23;;;;;;;41.08;17.80;;;;;;;-2.15;nan;101833.81;5106120;28;20043;-67
2022/03/13 07:33:48;;;;;;;33.35;16.08;;;;;;;-2.22;nan;101805.97;5102904;28;20500;-67
2022/03/13 07:36:14;;;;;;;37.25;17.95;;;;;;;-1.89;nan;101843.25;5105797;28;20034;-66
2022/03/13 07:38:39;;;;;;;37.33;16.85;;;;;;;-1.74;nan;101848.16;5096922;28;20028;-70
2022/03/13 07:41:05;;;;;;;38.88;16.63;;;;;;;-1.64;nan;101850.91;5085751;28;20039;-66
2022/03/13 07:43:31;;;;;;;40.63;17.75;;;;;;;-1.50;nan;101849.94;5105990;28;20118;-67
2022/03/13 07:45:57;;;;;;;42.08;17.20;;;;;;;-1.46;nan;101833.28;5103440;28;20031;-66
2022/03/13 07:48:22;;;;;;;39.97;17.17;;;;;;;-1.27;nan;101842.25;5104850;28;20059;-67
2022/03/13 07:50:48;;;;;;;37.33;16.63;;;;;;;-1.18;nan;101844.19;5083181;28;20477;-67
2022/03/13 07:53:13;;;;;;;37.88;16.55;;;;;;;-1.16;nan;101830.19;5087334;28;20027;-67
2022/03/13 07:55:39;;;;;;;42.80;18.45;;;;;;;-1.07;nan;101832.13;5103306;28;20114;-67
2022/03/13 07:58:04;;;;;;;41.10;18.60;;;;;;;-0.84;nan;101842.50;5103178;28;20038;-66
2022/03/13 08:00:30;;;;;;;38.40;17.77;;;;;;;-0.73;nan;101842.53;5102778;28;20040;-66
2022/03/13 08:02:55;;;;;;;39.05;17.80;;;;;;;-0.59;nan;101845.84;5104603;28;20042;-67
2022/03/13 08:05:21;;;;;;;35.28;17.17;;;;;;;-0.53;nan;101829.84;5108321;28;20039;-66
2022/03/13 08:07:48;;;;;;;41.17;18.35;;;;;;;-0.39;nan;101826.19;5108100;28;20035;-66
2022/03/13 08:10:14;;;;;;;38.22;17.45;;;;;;;-0.25;nan;101833.72;5096281;28;20028;-67
2022/03/13 08:12:39;;;;;;;39.08;17.58;;;;;;;-0.17;nan;101821.00;5084079;28;20075;-66
2022/03/13 08:15:09;;;;;;;41.92;16.73;;;;;;;0.01;nan;101825.72;5097545;28;20051;-67
2022/03/13 08:17:35;;;;;;;40.78;17.25;;;;;;;0.11;nan;101827.44;5102089;28;20115;-67
2022/03/13 08:20:02;;;;;;;34.03;16.83;;;;;;;0.10;nan;101810.25;5104571;28;20024;-67
2022/03/13 08:22:27;;;;;;;38.92;16.58;;;;;;;0.07;nan;101792.34;5090136;28;20107;-67
2022/03/13 08:24:52;;;;;;;41.50;16.67;;;;;;;0.39;nan;101807.13;5096866;28;20195;-67
2022/03/13 08:27:18;;;;;;;37.00;16.35;;;;;;;0.42;nan;101804.28;5110387;28;20632;-68
2022/03/13 08:29:44;;;;;;;34.83;16.92;;;;;;;0.60;nan;101810.56;5095878;28;20031;-69
2022/03/13 08:32:09;;;;;;;39.13;17.75;;;;;;;0.71;nan;101816.63;5099847;28;20047;-68
2022/03/13 08:34:37;;;;;;;39.33;17.60;;;;;;;0.78;nan;101812.59;5111732;28;20031;-69
2022/03/13 08:37:04;;;;;;;37.38;16.30;;;;;;;0.85;nan;101811.97;5103193;28;20473;-68
2022/03/13 08:39:29;;;;;;;34.08;15.45;;;;;;;0.96;nan;101816.28;5101523;28;20028;-68
2022/03/13 08:41:55;;;;;;;35.28;16.50;;;;;;;1.02;nan;101814.94;5102239;28;20500;-68
2022/03/13 08:44:20;;;;;;;34.40;15.50;;;;;;;1.05;nan;101794.78;5100033;28;20035;-68
2022/03/13 08:46:45;;;;;;;33.55;15.55;;;;;;;1.29;nan;101819.59;5101850;28;20031;-69
2022/03/13 08:49:12;;;;;;;31.38;14.98;;;;;;;1.32;nan;101806.38;5102275;28;20035;-68
2022/03/13 08:51:38;;;;;;;35.72;16.60;;;;;;;1.57;nan;101818.06;5098975;28;20038;-68
2022/03/13 08:54:03;;;;;;;34.05;15.98;;;;;;;1.65;nan;101812.22;5108450;28;20118;-68
2022/03/13 08:56:29;;;;;;;32.65;15.18;;;;;;;1.85;nan;101821.72;5106086;28;20039;-68
2022/03/13 08:58:55;;;;;;;34.78;15.50;;;;;;;1.98;nan;101815.47;5095513;28;20082;-68
2022/03/13 09:01:24;;;;;;;36.40;14.98;;;;;;;2.07;nan;101806.88;5079028;28;20024;-69
2022/03/13 09:03:49;;;;;;;30.08;14.23;;;;;;;2.20;nan;101812.63;5091889;28;20039;-69
2022/03/13 09:06:15;;;;;;;30.50;13.57;;;;;;;2.15;nan;101778.44;5101342;28;20032;-69
2022/03/13 09:08:40;;;;;;;29.42;14.23;;;;;;;2.45;nan;101810.47;5098831;28;20165;-69
2022/03/13 09:11:07;;;;;;;32.05;14.25;;;;;;;2.59;nan;101810.06;5104683;28;20028;-69
2022/03/13 09:13:32;;;;;;;32.08;14.43;;;;;;;2.63;nan;101801.00;5107300;28;20040;-68
2022/03/13 09:15:58;;;;;;;30.67;14.13;;;;;;;2.76;nan;101805.94;5090037;28;20500;-68
2022/03/13 09:18:23;;;;;;;31.25;13.60;;;;;;;2.89;nan;101811.66;5098428;28;20035;-69
2022/03/13 09:20:48;;;;;;;24.50;13.32;;;;;;;3.04;nan;101809.47;5092565;28;20031;-69
2022/03/13 09:23:14;;;;;;;24.10;12.32;;;;;;;3.17;nan;101811.75;5099210;28;20053;-69
2022/03/13 09:25:39;;;;;;;25.00;11.60;;;;;;;3.28;nan;101813.34;5093555;28;20036;-68
2022/03/13 09:28:05;;;;;;;23.08;11.02;;;;;;;3.39;nan;101818.38;5102555;28;20040;-69
2022/03/13 09:30:31;;;;;;;26.02;12.50;;;;;;;3.52;nan;101818.06;5097175;28;20038;-68
2022/03/13 09:32:56;;;;;;;22.75;11.98;;;;;;;3.62;nan;101811.03;5103911;28;20114;-69
2022/03/13 09:35:22;;;;;;;26.38;11.90;;;;;;;3.67;nan;101801.00;5099675;28;20020;-70
2022/03/13 09:37:49;;;;;;;24.23;12.00;;;;;;;3.86;nan;101812.31;5111616;28;20032;-69
2022/03/13 09:40:17;;;;;;;24.75;11.55;;;;;;;3.93;nan;101802.94;5100296;28;20039;-69
2022/03/13 09:42:43;;;;;;;21.08;10.68;;;;;;;3.99;nan;101786.69;5099742;28;20043;-69
2022/03/13 09:45:08;;;;;;;25.50;12.07;;;;;;;4.22;nan;101806.16;5097903;28;20099;-68
2022/03/13 09:47:36;;;;;;;23.15;11.00;;;;;;;4.19;nan;101777.78;5112483;28;20035;-70
2022/03/13 09:50:01;;;;;;;29.80;11.85;;;;;;;4.31;nan;101791.41;5109833;28;20020;-69
2022/03/13 09:52:27;;;;;;;25.33;11.45;;;;;;;4.11;nan;101759.44;5089462;28;20124;-66
2022/03/13 09:54:52;;;;;;;20.92;11.05;;;;;;;4.37;nan;101798.63;5107862;28;20047;-66
2022/03/13 09:57:19;;;;;;;19.98;9.18;;;;;;;4.38;nan;101786.41;5104424;28;20104;-67
2022/03/13 09:59:46;;;;;;;17.40;8.77;;;;;;;4.61;nan;101798.03;5095535;28;20074;-66
2022/03/13 10:02:11;;;;;;;17.27;8.73;;;;;;;4.58;nan;101780.06;5094793;28;20036;-66
2022/03/13 10:04:37;;;;;;;15.57;8.20;;;;;;;4.86;nan;101795.59;5092356;28;20044;-67
2022/03/13 10:07:02;;;;;;;17.40;8.65;;;;;;;5.01;nan;101790.66;5078837;28;20062;-67
2022/03/13 10:09:29;;;;;;;15.65;8.98;;;;;;;5.04;nan;101775.47;5102653;28;20067;-66
2022/03/13 10:12:04;;;;;;;20.23;10.38;;;;;;;5.22;nan;101791.09;5085414;28;20051;-67
2022/03/13 10:14:29;;;;;;;20.67;10.63;;;;;;;5.29;nan;101776.44;5076190;28;20031;-70
2022/03/13 10:16:55;;;;;;;25.77;10.77;;;;;;;5.19;nan;101749.59;5094255;28;20511;-68
2022/03/13 10:19:22;;;;;;;20.27;10.48;;;;;;;5.35;nan;101779.41;5095985;28;20580;-69
2022/03/13 10:22:05;;;;;;;21.67;10.65;;;;;;;5.40;nan;101762.28;5093624;28;20039;-69
2022/03/13 10:24:40;;;;;;;20.52;10.32;;;;;;;5.61;nan;101771.50;5093068;28;20035;-68
2022/03/13 10:27:15;;;;;;;18.90;10.73;;;;;;;5.77;nan;101763.72;5088404;28;20067;-67
2022/03/13 10:29:42;;;;;;;19.40;10.77;;;;;;;5.71;nan;101752.09;5101841;28;20397;-67
2022/03/13 10:32:08;;;;;;;24.05;11.35;;;;;;;5.82;nan;101774.50;5103611;28;20069;-69
2022/03/13 10:34:35;;;;;;;23.40;11.23;;;;;;;5.61;nan;101761.88;5085381;28;20111;-68
2022/03/13 10:37:01;;;;;;;21.25;10.75;;;;;;;5.60;nan;101773.28;5089856;28;20454;-67
2022/03/13 10:39:27;;;;;;;21.05;11.18;;;;;;;5.64;nan;101768.56;5096529;28;20063;-67
2022/03/13 10:42:01;;;;;;;20.73;10.52;;;;;;;5.64;nan;101768.56;5103608;28;20464;-67
2022/03/13 10:44:28;;;;;;;21.95;10.68;;;;;;;5.61;nan;101763.66;5093040;28;20043;-68
2022/03/13 10:46:56;;;;;;;20.13;10.68;;;;;;;5.78;nan;101762.72;5099165;28;20038;-67
2022/03/13 10:49:32;;;;;;;21.35;10.43;;;;;;;5.97;nan;101759.06;5084493;28;20186;-68
2022/03/13 10:51:57;;;;;;;22.02;10.90;;;;;;;6.16;nan;101758.75;5098519;28;20039;-66
2022/03/13 10:54:37;;;;;;;21.02;10.35;;;;;;;6.38;nan;101748.63;5098149;28;20036;-67
2022/03/13 10:57:10;;;;;;;17.63;9.63;;;;;;;6.56;nan;101736.19;5104083;28;20031;-68
2022/03/13 10:59:37;;;;;;;19.52;9.93;;;;;;;6.58;nan;101749.94;5073915;28;20497;-68
2022/03/13 11:02:13;;;;;;;17.42;9.57;;;;;;;6.62;nan;101739.13;5100162;28;20047;-67
2022/03/13 11:04:55;;;;;;;13.65;7.47;;;;;;;6.50;nan;101723.75;5103841;28;20051;-67
2022/03/13 11:07:22;;;;;;;14.77;7.97;;;;;;;6.82;nan;101743.84;5109778;28;20036;-67
2022/03/13 11:09:48;;;;;;;15.32;7.70;;;;;;;6.77;nan;101745.31;5108164;28;20117;-68
2022/03/13 11:12:20;;;;;;;16.00;7.65;;;;;;;6.77;nan;101738.25;5102908;28;20084;-67
2022/03/13 11:14:51;;;;;;;13.88;7.65;;;;;;;6.76;nan;101738.44;5080891;28;20485;-67
2022/03/13 11:17:22;;;;;;;11.70;6.75;;;;;;;6.58;nan;101697.59;5093337;28;20028;-68
2022/03/13 11:19:49;;;;;;;15.13;8.10;;;;;;;6.95;nan;101737.25;5080529;28;20055;-68
2022/03/13 11:22:20;;;;;;;13.05;7.28;;;;;;;7.11;nan;101733.75;5096153;28;20125;-68
2022/03/13 11:24:49;;;;;;;12.43;6.57;;;;;;;7.16;nan;101726.22;5078968;28;20047;-68